Aérodrome :
LOGIN :

S'inscrire | Disclaimer

   EN    FR    IT 

 










Légende :    VFR   VFR Marginal   IFR   IFR Intensif   IFR Très Intensif
Visi : 
Plafond : 
>= 8 km
>= 3000ft
5 à 8 km
1000 à 3000 ft
1500m à 5 km
500 à 1000 ft
800 à 1500m
200 à 500 ft
< 800m
< 200 ft
Symboles :   Orages  Brouillard  Fortes neiges  Fortes précipitations  Vent > 20 kt
SIGMETs :   Divers  Orages  Givrage  Turbulence  Onde Orograph.  Cendres Volcan.






- Altitude de l'aérodrome : 124 ft
- Code IATA : NHT


EGWU - RAF Northolt

DERNIER METAR :
  • 210450Z AUTO 11009KT 8000 // OVC009/// 04/02 Q1006

METARs EXPIRÉS :
  • 210350Z AUTO 12008KT 9000 // OVC010/// 04/02 Q1006
  • 210250Z AUTO 12007KT 9999 // OVC011/// 04/02 Q1006

TAF AMD TAF EGWU
Valide du 20 à 21h jusqu'au 21 à 15h UTC


202056Z 2021/2115 12008KT 9999 FEW025
TEMPO 2021/2024 BKN020
BECMG 2100/2103 BKN010
PROB30
TEMPO 2103/2111 BKN006



MET'MAP, la Météo Aéronautique d'un coup d'oeil ! - Copyright ORBIFLY Décembre 2007 - Disclaimer

ORBIFLY MET'MAP TEAM :

Programmation & Développement : Alexandra Zaïnal
Conception & Développement : Baudouin d'Aumeries
Co-Programmation & Développement : Marc-Olivier Méhu
Soutien technique & logistique : Manuel Goepfert

Contact : metmap@orbifly.com




SOURCES & CREDITS :

   NOAA